createdAt,value
2023-04-03T00:00:22.072Z,97296.56
2023-04-03T00:03:11.515Z,97293.18
2023-04-03T00:05:42.763Z,97294.36
2023-04-03T00:08:13.733Z,97296.03
2023-04-03T00:10:43.795Z,97295.01
2023-04-03T00:13:15.121Z,97295.30
2023-04-03T00:15:45.092Z,97296.85
2023-04-03T00:18:14.604Z,97296.45
2023-04-03T00:20:44.394Z,97294.02
2023-04-03T00:23:13.682Z,97295.85
2023-04-03T00:25:44.482Z,97298.14
2023-04-03T00:28:14.548Z,97295.64
2023-04-03T00:30:44.761Z,97295.50
2023-04-03T00:33:15.213Z,97293.80
2023-04-03T00:35:46.683Z,97298.91
2023-04-03T00:38:17.226Z,97295.66
2023-04-03T00:40:50.330Z,97299.29
2023-04-03T00:43:27.048Z,97298.73
2023-04-03T00:46:02.058Z,97298.48
2023-04-03T00:48:41.917Z,97300.38
2023-04-03T00:51:26.943Z,97304.60
2023-04-03T00:54:04.617Z,97304.45
2023-04-03T00:56:38.675Z,97309.25
2023-04-03T00:59:24.633Z,97312.52
2023-04-03T01:01:57.833Z,97312.77
2023-04-03T01:04:33.095Z,97316.74
2023-04-03T01:07:20.170Z,97313.98
2023-04-03T01:09:55.006Z,97316.74
2023-04-03T01:12:34.594Z,97317.45
2023-04-03T01:15:11.745Z,97320.38
2023-04-03T01:17:50.738Z,97319.98
2023-04-03T01:20:32.518Z,97320.16
2023-04-03T01:23:18.697Z,97323.03
2023-04-03T01:25:56.177Z,97314.05
2023-04-03T01:28:35.858Z,97316.88
2023-04-03T01:31:29.476Z,97321.73
2023-04-03T01:33:59.274Z,97321.79
2023-04-03T01:36:32.761Z,97320.70
2023-04-03T01:39:02.433Z,97322.12
2023-04-03T01:41:32.533Z,97323.84
2023-04-03T01:44:12.732Z,97327.88
2023-04-03T01:46:43.866Z,97327.77
2023-04-03T01:49:13.946Z,97327.92
2023-04-03T01:51:43.796Z,97331.60
2023-04-03T01:54:13.654Z,97332.73
2023-04-03T01:56:43.495Z,97339.84
2023-04-03T01:59:13.775Z,97343.68
2023-04-03T02:01:46.678Z,97347.80
2023-04-03T02:04:16.467Z,97348.89
2023-04-03T02:06:45.988Z,97349.42
2023-04-03T02:09:17.036Z,97348.92
2023-04-03T02:11:46.775Z,97348.48
2023-04-03T02:14:17.085Z,97346.78
2023-04-03T02:16:50.889Z,97353.14
2023-04-03T02:19:21.191Z,97357.77
2023-04-03T02:21:52.181Z,97357.45
2023-04-03T02:24:22.479Z,97356.52
2023-04-03T02:26:52.380Z,97358.87
2023-04-03T02:29:28.030Z,97362.20
2023-04-03T02:31:58.318Z,97359.83
2023-04-03T02:34:28.503Z,97359.95
2023-04-03T02:37:00.152Z,97361.71
2023-04-03T02:39:29.497Z,97361.13
2023-04-03T02:41:59.469Z,97359.27
2023-04-03T02:44:30.643Z,97361.45
2023-04-03T02:47:01.701Z,97359.56
2023-04-03T02:49:31.607Z,97359.09
2023-04-03T02:52:01.554Z,97356.81
2023-04-03T02:54:33.744Z,97361.89
2023-04-03T02:57:07.190Z,97361.24
2023-04-03T02:59:42.970Z,97367.11
2023-04-03T03:02:13.901Z,97372.80
2023-04-03T03:04:44.519Z,97371.40
2023-04-03T03:07:14.573Z,97382.53
2023-04-03T03:09:46.285Z,97388.86
2023-04-03T03:12:16.108Z,97383.91
2023-04-03T03:14:45.532Z,97384.36
2023-04-03T03:17:16.115Z,97388.21
2023-04-03T03:19:50.163Z,97384.70
2023-04-03T03:22:20.295Z,97390.12
2023-04-03T03:24:49.975Z,97395.09
2023-04-03T03:27:20.262Z,97398.59
2023-04-03T03:29:50.269Z,97400.27
2023-04-03T03:32:20.791Z,97407.79
2023-04-03T03:34:53.063Z,97409.42
2023-04-03T03:37:24.066Z,97406.50
2023-04-03T03:39:54.115Z,97410.67
2023-04-03T03:42:25.201Z,97405.95
2023-04-03T03:44:54.924Z,97405.05
2023-04-03T03:47:25.689Z,97410.39
2023-04-03T03:49:55.137Z,97411.20
2023-04-03T03:52:25.660Z,97406.89
2023-04-03T03:54:56.534Z,97407.89
2023-04-03T03:57:28.461Z,97405.74
2023-04-03T03:59:58.243Z,97407.84
2023-04-03T04:02:28.522Z,97408.41
2023-04-03T04:04:58.336Z,97414.69
2023-04-03T04:07:29.884Z,97415.08
2023-04-03T04:10:01.249Z,97422.04
2023-04-03T04:12:30.525Z,97422.58
2023-04-03T04:15:05.779Z,97426.83
2023-04-03T04:17:38.038Z,97423.67
2023-04-03T04:20:18.787Z,97427.78
2023-04-03T04:22:50.491Z,97423.96
2023-04-03T04:25:21.067Z,97427.73
2023-04-03T04:27:51.004Z,97423.55
2023-04-03T04:30:21.057Z,97420.75
2023-04-03T04:32:52.563Z,97422.68
2023-04-03T04:35:23.604Z,97421.06
2023-04-03T04:37:53.951Z,97425.41
2023-04-03T04:40:24.989Z,97429.63
2023-04-03T04:42:55.113Z,97425.25
2023-04-03T04:45:26.464Z,97426.34
2023-04-03T04:48:00.311Z,97429.61
2023-04-03T04:50:30.958Z,97431.00
2023-04-03T04:53:00.415Z,97432.12
2023-04-03T04:55:29.909Z,97435.12
2023-04-03T04:57:59.565Z,97435.77
2023-04-03T05:00:28.867Z,97437.31
2023-04-03T05:02:59.481Z,97439.73
2023-04-03T05:05:29.553Z,97436.24
2023-04-03T05:07:59.986Z,97438.64
2023-04-03T05:10:30.170Z,97440.90
2023-04-03T05:13:00.018Z,97440.03
2023-04-03T05:15:30.003Z,97442.45
2023-04-03T05:18:01.722Z,97443.33
2023-04-03T05:20:33.233Z,97441.55
2023-04-03T05:23:03.115Z,97441.22
2023-04-03T05:25:33.830Z,97441.36
2023-04-03T05:28:08.456Z,97437.91
2023-04-03T05:30:38.357Z,97437.98
2023-04-03T05:33:08.867Z,97428.77
2023-04-03T05:35:49.155Z,97422.56
2023-04-03T05:38:21.928Z,97422.51
2023-04-03T05:40:52.183Z,97421.19
2023-04-03T05:43:22.304Z,97427.73
2023-04-03T05:45:53.692Z,97430.92
2023-04-03T05:48:24.327Z,97431.42
2023-04-03T05:50:54.699Z,97435.74
2023-04-03T05:53:30.974Z,97436.42
2023-04-03T05:56:03.935Z,97439.73
2023-04-03T05:58:35.135Z,97440.15
2023-04-03T06:01:05.097Z,97441.86
2023-04-03T06:03:38.587Z,97443.36
2023-04-03T06:06:15.681Z,97438.74
2023-04-03T06:08:47.687Z,97438.55
2023-04-03T06:11:18.087Z,97437.70
2023-04-03T06:13:49.427Z,97441.58
2023-04-03T06:16:21.027Z,97445.77
2023-04-03T06:18:51.395Z,97447.46
2023-04-03T06:21:21.224Z,97453.45
2023-04-03T06:23:53.274Z,97453.61
2023-04-03T06:26:23.878Z,97453.66
2023-04-03T06:28:53.510Z,97457.34
2023-04-03T06:31:23.688Z,97455.65
2023-04-03T06:33:54.061Z,97455.36
2023-04-03T06:36:24.457Z,97455.52
2023-04-03T06:38:53.869Z,97457.63
2023-04-03T06:41:23.474Z,97459.88
2023-04-03T06:43:53.304Z,97457.23
2023-04-03T06:46:26.124Z,97459.27
2023-04-03T06:48:56.494Z,97458.88
2023-04-03T06:51:28.910Z,97464.29
2023-04-03T06:54:00.947Z,97464.94
2023-04-03T06:56:30.483Z,97465.84
2023-04-03T06:59:01.174Z,97468.27
2023-04-03T07:01:32.192Z,97470.86
2023-04-03T07:04:02.571Z,97469.09
2023-04-03T07:06:35.073Z,97469.45
2023-04-03T07:09:06.770Z,97471.17
2023-04-03T07:11:37.810Z,97470.34
2023-04-03T07:14:09.561Z,97471.06
2023-04-03T07:16:42.898Z,97470.52
2023-04-03T07:19:13.339Z,97472.33
2023-04-03T07:21:43.504Z,97473.27
2023-04-03T07:24:16.203Z,97472.64
2023-04-03T07:26:46.773Z,97473.41
2023-04-03T07:29:16.474Z,97477.23
2023-04-03T07:31:48.450Z,97474.54
2023-04-03T07:34:29.189Z,97483.36
2023-04-03T07:37:01.511Z,97485.66
2023-04-03T07:39:33.714Z,97491.41
2023-04-03T07:42:03.752Z,97488.45
2023-04-03T07:44:34.140Z,97489.79
2023-04-03T07:47:04.052Z,97488.99
2023-04-03T07:49:34.788Z,97496.23
2023-04-03T07:52:14.196Z,97493.08
2023-04-03T07:55:09.800Z,97496.43
2023-04-03T07:57:39.899Z,97497.83
2023-04-03T08:00:11.419Z,97499.80
2023-04-03T08:02:46.138Z,97501.72
2023-04-03T08:05:19.654Z,97504.52
2023-04-03T08:07:50.384Z,97503.94
2023-04-03T08:10:20.032Z,97506.37
2023-04-03T08:12:50.376Z,97510.45
2023-04-03T08:15:19.803Z,97507.00
2023-04-03T08:17:49.204Z,97513.41
2023-04-03T08:20:21.354Z,97512.92
2023-04-03T08:22:50.950Z,97520.63
2023-04-03T08:25:26.554Z,97518.31
2023-04-03T08:27:57.366Z,97521.80
2023-04-03T08:30:30.158Z,97520.91
2023-04-03T08:33:03.979Z,97520.00
2023-04-03T08:35:43.593Z,97524.94
2023-04-03T08:38:16.545Z,97528.92
2023-04-03T08:40:47.004Z,97532.70
2023-04-03T08:43:37.386Z,97527.50
2023-04-03T08:46:13.945Z,97524.54
2023-04-03T08:48:45.332Z,97517.94
2023-04-03T08:51:22.014Z,97516.92
2023-04-03T08:54:10.832Z,97518.91
2023-04-03T08:56:42.548Z,97523.69
2023-04-03T08:59:23.166Z,97524.32
2023-04-03T09:01:55.818Z,97524.81
2023-04-03T09:04:29.701Z,97527.64
2023-04-03T09:07:10.511Z,97534.58
2023-04-03T09:09:52.457Z,97533.00
2023-04-03T09:12:34.545Z,97533.25
2023-04-03T09:15:27.848Z,97532.73
2023-04-03T09:18:22.254Z,97531.27
2023-04-03T09:21:34.949Z,97540.55
2023-04-03T09:24:08.913Z,97538.48
2023-04-03T09:26:53.102Z,97545.73
2023-04-03T09:29:25.394Z,97549.40
2023-04-03T09:31:58.485Z,97542.54
2023-04-03T09:34:33.518Z,97544.89
2023-04-03T09:37:10.673Z,97546.17
2023-04-03T09:39:52.884Z,97550.59
2023-04-03T09:42:27.906Z,97555.48
2023-04-03T09:45:03.677Z,97561.29
2023-04-03T09:47:37.963Z,97566.50
2023-04-03T09:50:14.437Z,97566.80
2023-04-03T09:52:47.952Z,97565.52
2023-04-03T09:55:29.568Z,97560.10
2023-04-03T09:58:05.012Z,97563.58
2023-04-03T10:00:44.902Z,97562.55
2023-04-03T10:03:49.312Z,97562.44
2023-04-03T10:06:25.795Z,97564.02
2023-04-03T10:09:07.037Z,97566.21
2023-04-03T10:11:37.303Z,97564.86
2023-04-03T10:14:18.972Z,97571.84
2023-04-03T10:16:57.559Z,97577.52
2023-04-03T10:19:45.953Z,97581.44
2023-04-03T10:22:27.893Z,97575.67
2023-04-03T10:25:24.838Z,97573.38
2023-04-03T10:28:09.084Z,97571.92
2023-04-03T10:31:03.493Z,97571.99
2023-04-03T10:33:56.415Z,97575.39
2023-04-03T10:36:46.649Z,97575.69
2023-04-03T10:39:32.416Z,97573.09
2023-04-03T10:42:35.958Z,97570.30
2023-04-03T10:45:32.453Z,97566.63
2023-04-03T10:48:22.938Z,97571.39
2023-04-03T10:51:03.478Z,97571.73
2023-04-03T10:54:06.702Z,97572.05
2023-04-03T10:56:58.030Z,97568.74
2023-04-03T10:59:38.796Z,97568.58
2023-04-03T11:02:17.972Z,97565.13
2023-04-03T11:05:04.199Z,97566.64
2023-04-03T11:07:47.760Z,97568.64
2023-04-03T11:10:43.825Z,97568.62
2023-04-03T11:13:26.771Z,97570.00
2023-04-03T11:15:58.695Z,97569.05
2023-04-03T11:19:03.500Z,97566.77
2023-04-03T11:21:43.726Z,97562.97
2023-04-03T11:24:33.963Z,97561.91
2023-04-03T11:27:06.616Z,97559.55
2023-04-03T11:29:42.376Z,97560.61
2023-04-03T11:32:26.982Z,97559.94
2023-04-03T11:35:01.630Z,97552.09
2023-04-03T11:37:41.651Z,97549.83
2023-04-03T11:40:19.650Z,97548.27
2023-04-03T11:42:56.931Z,97547.54
2023-04-03T11:45:26.648Z,97553.31
2023-04-03T11:47:57.728Z,97558.54
2023-04-03T11:50:36.934Z,97558.02
2023-04-03T11:53:09.566Z,97555.86
2023-04-03T11:55:55.391Z,97557.09
2023-04-03T11:58:31.884Z,97552.71
2023-04-03T12:01:43.214Z,97555.04
2023-04-03T12:04:18.410Z,97553.27
2023-04-03T12:06:48.978Z,97550.69
2023-04-03T12:09:35.115Z,97547.82
2023-04-03T12:12:32.532Z,97545.66
2023-04-03T12:15:50.996Z,97548.72
2023-04-03T12:18:46.238Z,97543.80
2023-04-03T12:21:20.611Z,97545.61
2023-04-03T12:24:25.425Z,97541.73
2023-04-03T12:27:04.819Z,97534.56
2023-04-03T12:29:49.225Z,97534.64
2023-04-03T12:32:37.977Z,97538.83
2023-04-03T12:35:26.826Z,97540.90
2023-04-03T12:38:35.859Z,97550.61
2023-04-03T12:41:20.597Z,97540.75
2023-04-03T12:44:18.317Z,97535.79
2023-04-03T12:46:52.023Z,97535.07
2023-04-03T12:49:30.785Z,97535.19
2023-04-03T12:52:02.085Z,97534.27
2023-04-03T12:54:45.156Z,97534.80
2023-04-03T12:57:22.151Z,97522.95
2023-04-03T12:59:53.080Z,97523.20
2023-04-03T13:02:38.855Z,97520.04
2023-04-03T13:05:11.977Z,97517.13
2023-04-03T13:07:44.821Z,97516.79
2023-04-03T13:10:18.873Z,97512.27
2023-04-03T13:12:55.063Z,97508.61
2023-04-03T13:15:32.077Z,97514.84
2023-04-03T13:18:03.307Z,97511.95
2023-04-03T13:20:37.265Z,97507.23
2023-04-03T13:23:10.748Z,97501.22
2023-04-03T13:25:50.775Z,97498.86
2023-04-03T13:28:25.059Z,97500.94
2023-04-03T13:31:32.635Z,97498.55
2023-04-03T13:34:12.533Z,97493.18
2023-04-03T13:36:54.971Z,97499.02
2023-04-03T13:39:30.390Z,97496.33
2023-04-03T13:42:04.133Z,97501.22
2023-04-03T13:44:41.270Z,97503.96
2023-04-03T13:47:11.705Z,97503.52
2023-04-03T13:49:44.675Z,97502.27
2023-04-03T13:52:28.633Z,97503.70
2023-04-03T13:55:25.201Z,97507.55
2023-04-03T13:58:04.737Z,97502.77
2023-04-03T14:00:33.849Z,97501.11
2023-04-03T14:03:23.671Z,97505.61
2023-04-03T14:05:54.931Z,97498.52
2023-04-03T14:08:32.605Z,97497.77
2023-04-03T14:11:19.426Z,97490.63
2023-04-03T14:13:51.939Z,97488.81
2023-04-03T14:16:23.615Z,97490.52
2023-04-03T14:18:54.371Z,97494.95
2023-04-03T14:21:24.756Z,97489.09
2023-04-03T14:23:55.637Z,97490.33
2023-04-03T14:26:28.584Z,97489.96
2023-04-03T14:28:58.848Z,97489.70
2023-04-03T14:31:28.944Z,97491.83
2023-04-03T14:34:01.821Z,97490.57
2023-04-03T14:36:33.987Z,97490.80
2023-04-03T14:39:10.360Z,97490.91
2023-04-03T14:41:43.560Z,97492.52
2023-04-03T14:44:16.435Z,97495.42
2023-04-03T14:46:56.341Z,97494.59
2023-04-03T14:49:30.634Z,97494.36
2023-04-03T14:52:00.251Z,97494.36
2023-04-03T14:54:30.643Z,97492.36
2023-04-03T14:57:02.274Z,97498.05
2023-04-03T14:59:33.717Z,97499.88
2023-04-03T15:02:03.427Z,97505.01
2023-04-03T15:04:36.648Z,97513.02
2023-04-03T15:07:05.999Z,97514.81
2023-04-03T15:09:38.831Z,97519.73
2023-04-03T15:12:11.446Z,97519.42
2023-04-03T15:14:52.449Z,97524.73
2023-04-03T15:17:25.464Z,97521.59
2023-04-03T15:19:55.537Z,97518.67
2023-04-03T15:22:25.273Z,97519.43
2023-04-03T15:24:54.508Z,97515.21
2023-04-03T15:27:24.131Z,97512.95
2023-04-03T15:29:54.848Z,97510.28
2023-04-03T15:32:24.766Z,97508.00
2023-04-03T15:34:56.854Z,97505.61
2023-04-03T15:37:26.625Z,97506.36
2023-04-03T15:39:56.870Z,97501.77
2023-04-03T15:42:26.770Z,97499.68
2023-04-03T15:44:57.464Z,97500.08
2023-04-03T15:47:28.406Z,97497.18
2023-04-03T15:49:58.216Z,97497.17
2023-04-03T15:52:28.369Z,97496.93
2023-04-03T15:54:58.315Z,97503.30
2023-04-03T15:57:28.325Z,97508.88
2023-04-03T15:59:58.646Z,97507.35
2023-04-03T16:02:29.076Z,97508.88
2023-04-03T16:04:59.306Z,97507.97
2023-04-03T16:07:28.854Z,97503.71
2023-04-03T16:09:59.220Z,97501.06
2023-04-03T16:12:28.503Z,97491.13
2023-04-03T16:14:58.181Z,97492.58
2023-04-03T16:17:29.315Z,97494.23
2023-04-03T16:20:01.283Z,97498.89
2023-04-03T16:22:31.967Z,97501.50
2023-04-03T16:25:01.347Z,97504.30
2023-04-03T16:27:32.392Z,97503.73
2023-04-03T16:30:03.100Z,97500.75
2023-04-03T16:32:33.642Z,97499.52
2023-04-03T16:35:03.334Z,97498.19
2023-04-03T16:37:33.491Z,97499.64
2023-04-03T16:40:07.295Z,97498.25
2023-04-03T16:42:38.014Z,97500.30
2023-04-03T16:45:09.518Z,97499.83
2023-04-03T16:47:39.116Z,97505.50
2023-04-03T16:50:10.159Z,97507.59
2023-04-03T16:52:41.695Z,97513.79
2023-04-03T16:55:11.531Z,97513.00
2023-04-03T16:57:42.945Z,97515.36
2023-04-03T17:00:13.805Z,97513.83
2023-04-03T17:02:43.494Z,97516.27
2023-04-03T17:05:13.158Z,97520.33
2023-04-03T17:07:42.861Z,97521.61
2023-04-03T17:10:15.928Z,97523.18
2023-04-03T17:12:45.877Z,97524.81
2023-04-03T17:15:16.615Z,97523.32
2023-04-03T17:17:46.369Z,97519.77
2023-04-03T17:20:16.579Z,97522.46
2023-04-03T17:22:45.996Z,97526.01
2023-04-03T17:25:16.469Z,97531.71
2023-04-03T17:27:46.139Z,97529.88
2023-04-03T17:30:16.884Z,97529.05
2023-04-03T17:32:47.766Z,97533.77
2023-04-03T17:35:18.822Z,97539.27
2023-04-03T17:37:53.322Z,97544.42
2023-04-03T17:40:22.728Z,97542.80
2023-04-03T17:42:53.572Z,97547.32
2023-04-03T17:45:24.752Z,97548.23
2023-04-03T17:47:55.371Z,97551.09
2023-04-03T17:50:24.919Z,97554.52
2023-04-03T17:52:54.701Z,97557.31
2023-04-03T17:55:27.873Z,97564.15
2023-04-03T17:57:57.826Z,97567.41
2023-04-03T18:00:28.717Z,97575.00
2023-04-03T18:03:16.717Z,97571.09
2023-04-03T18:06:07.718Z,97568.14
2023-04-03T18:08:48.394Z,97566.95
2023-04-03T18:11:22.267Z,97561.88
2023-04-03T18:13:53.271Z,97563.11
2023-04-03T18:16:22.753Z,97571.39
2023-04-03T18:19:02.553Z,97577.98
2023-04-03T18:21:46.365Z,97575.48
2023-04-03T18:24:19.008Z,97577.70
2023-04-03T18:26:57.939Z,97583.86
2023-04-03T18:29:38.826Z,97588.67
2023-04-03T18:32:10.946Z,97592.39
2023-04-03T18:34:40.954Z,97591.13
2023-04-03T18:37:11.669Z,97591.23
2023-04-03T18:39:42.068Z,97596.48
2023-04-03T18:42:17.639Z,97588.59
2023-04-03T18:44:54.080Z,97590.98
2023-04-03T18:47:23.475Z,97584.05
2023-04-03T18:49:54.112Z,97584.84
2023-04-03T18:52:25.863Z,97581.98
2023-04-03T18:54:57.480Z,97584.42
2023-04-03T18:57:29.113Z,97584.42
2023-04-03T18:59:58.618Z,97587.97
2023-04-03T19:02:30.503Z,97589.88
2023-04-03T19:05:02.081Z,97591.89
2023-04-03T19:07:32.875Z,97593.84
2023-04-03T19:10:02.848Z,97595.29
2023-04-03T19:12:32.917Z,97595.90
2023-04-03T19:15:04.531Z,97590.73
2023-04-03T19:17:33.844Z,97587.00
2023-04-03T19:20:05.188Z,97587.21
2023-04-03T19:22:36.084Z,97592.15
2023-04-03T19:25:08.244Z,97593.17
2023-04-03T19:27:38.796Z,97591.12
2023-04-03T19:30:12.445Z,97593.91
2023-04-03T19:32:42.611Z,97594.02
2023-04-03T19:35:12.443Z,97589.73
2023-04-03T19:37:43.576Z,97589.73
2023-04-03T19:40:14.031Z,97583.73
2023-04-03T19:42:43.362Z,97581.89
2023-04-03T19:45:16.232Z,97582.26
2023-04-03T19:47:47.791Z,97578.02
2023-04-03T19:50:17.873Z,97575.50
2023-04-03T19:52:48.553Z,97571.48
2023-04-03T19:55:18.806Z,97574.22
2023-04-03T19:57:48.474Z,97569.18
2023-04-03T20:00:21.025Z,97571.85
2023-04-03T20:02:51.074Z,97567.46
2023-04-03T20:05:22.024Z,97567.31
2023-04-03T20:07:51.956Z,97569.55
2023-04-03T20:10:22.091Z,97570.17
2023-04-03T20:12:51.830Z,97566.92
2023-04-03T20:15:21.843Z,97571.60
2023-04-03T20:17:51.380Z,97572.25
2023-04-03T20:20:20.925Z,97568.50
2023-04-03T20:22:53.194Z,97571.00
2023-04-03T20:25:43.725Z,97572.95
2023-04-03T20:28:16.185Z,97570.02
2023-04-03T20:30:48.554Z,97570.52
2023-04-03T20:33:19.633Z,97565.15
2023-04-03T20:35:51.919Z,97558.48
2023-04-03T20:38:23.679Z,97563.68
2023-04-03T20:40:55.094Z,97563.32
2023-04-03T20:43:25.806Z,97569.25
2023-04-03T20:45:55.073Z,97568.77
2023-04-03T20:48:24.298Z,97566.42
2023-04-03T20:50:53.825Z,97562.80
2023-04-03T20:53:23.543Z,97556.99
2023-04-03T20:56:00.753Z,97550.53
2023-04-03T20:58:33.716Z,97551.04
2023-04-03T21:01:03.461Z,97554.11
2023-04-03T21:03:34.410Z,97550.82
2023-04-03T21:06:06.758Z,97552.05
2023-04-03T21:09:13.655Z,97550.59
2023-04-03T21:12:20.914Z,97551.02
2023-04-03T21:15:28.819Z,97546.09
2023-04-03T21:18:09.767Z,97544.09
2023-04-03T21:20:40.748Z,97546.73
2023-04-03T21:23:10.612Z,97546.15
2023-04-03T21:25:41.104Z,97537.11
2023-04-03T21:28:10.608Z,97537.44
2023-04-03T21:30:40.264Z,97537.56
2023-04-03T21:33:12.894Z,97538.11
2023-04-03T21:35:42.673Z,97536.82
2023-04-03T21:38:12.725Z,97530.75
2023-04-03T21:40:47.515Z,97526.80
2023-04-03T21:43:17.364Z,97524.67
2023-04-03T21:45:48.495Z,97522.06
2023-04-03T21:48:20.647Z,97520.39
2023-04-03T21:50:54.669Z,97522.20
2023-04-03T21:53:24.594Z,97522.55
2023-04-03T21:58:50.483Z,97514.14
2023-04-03T22:01:21.487Z,97507.89
2023-04-03T22:03:51.251Z,97514.16
2023-04-03T22:06:20.263Z,97514.17
2023-04-03T22:08:49.800Z,97517.29
2023-04-03T22:11:21.796Z,97515.35
2023-04-03T22:13:55.383Z,97513.27
2023-04-03T22:16:25.842Z,97513.56
2023-04-03T22:18:57.524Z,97522.30
2023-04-03T22:21:27.485Z,97526.63
2023-04-03T22:23:58.683Z,97530.14
2023-04-03T22:26:29.173Z,97528.30
2023-04-03T22:28:58.855Z,97525.02
2023-04-03T22:31:28.208Z,97529.73
2023-04-03T22:33:58.280Z,97527.75
2023-04-03T22:36:28.111Z,97528.41
2023-04-03T22:38:58.107Z,97531.61
2023-04-03T22:41:27.354Z,97526.18
2023-04-03T22:43:58.217Z,97516.77
2023-04-03T22:46:28.664Z,97508.27
2023-04-03T22:48:58.052Z,97503.48
2023-04-03T22:51:28.478Z,97500.58
2023-04-03T22:53:58.848Z,97502.36
2023-04-03T22:56:28.775Z,97504.54
2023-04-03T22:59:00.205Z,97506.67
2023-04-03T23:01:31.117Z,97517.58
2023-04-03T23:04:01.304Z,97518.09
2023-04-03T23:06:30.450Z,97515.20
2023-04-03T23:09:03.201Z,97513.45
2023-04-03T23:11:32.523Z,97517.54
2023-04-03T23:14:03.563Z,97516.48
2023-04-03T23:16:33.529Z,97514.98
2023-04-03T23:19:04.828Z,97510.08
2023-04-03T23:21:34.819Z,97508.35
2023-04-03T23:24:04.760Z,97508.70
2023-04-03T23:26:34.637Z,97509.02
2023-04-03T23:29:06.010Z,97508.11
2023-04-03T23:31:35.891Z,97505.11
2023-04-03T23:34:06.851Z,97500.72
2023-04-03T23:36:38.681Z,97496.32
2023-04-03T23:39:09.319Z,97491.84
2023-04-03T23:41:38.828Z,97493.05
2023-04-03T23:44:08.802Z,97491.76
2023-04-03T23:46:39.645Z,97491.77
2023-04-03T23:49:09.983Z,97487.91
2023-04-03T23:51:39.923Z,97491.36
2023-04-03T23:54:09.672Z,97493.95
2023-04-03T23:56:40.123Z,97493.16
2023-04-03T23:59:10.735Z,97490.27
